Terminal Aerodrome Forecast
Issued by NWS

Home | Current Version | Previous Version | Text Only | Print | Product List | Glossary On
Versions: 1 2 3 4 5 6 7 8 9 10 11 12 13 14 15 16
000
FTUS43 KGRR 080541
TAFMKG
TAF
KMKG 080541Z 0806/0906 28013G23KT P6SM OVC015
     FM081200 28017G27KT 3SM -SHSN BLSN OVC010
     FM081500 28016G26KT 1SM -SHSN BLSN OVC015
     FM082100 29014G22KT 4SM -SHSN OVC025
     FM090000 31012G20KT P6SM OVC025=

USA.gov is the U.S. government's official web portal to all federal, state and local government web resources and services.